sábado, 14 de abril de 2012

O MUNDO ESTÁ CHACOALHANDO... DEMAIS...


Bem amigos deste BLOG...
Confesso que esta semana tem sido impressionante quanto a sua atividade sísmica.
E nem sei ainda se esta atividade já acabou...
Eu nem sei se você soube de tudo o que aconteceu e está acontecendo...
Estaria algo afetando o nosso planeta?
Os terremotos que aconteceram em Sumatra, no dia 11, podem ser a ponta de um iceberg de toda uma atividade intensa que está acontecendo bem debaixo de nossos pés.
Se você acredita que está seguro... bem, talvez, você devesse checar melhor em que você se apóia para ter certeza disso...
Como você não tem acesso a informações científicas no Jornal Nacional, quero publicar aqui tudo o que está acontecendo ao longo desta semana... e que ainda não voltou ao normal (escrevo este post as 21:30 do sábado...),
Pelo menos quanto ao que eu considero normal, baseado em minhas leigas observações ao longo dos últimos anos no site do Governo Americano que monitora o que acontecee em tempo real.
Mesmo que você não consulte o link acima, como quero que você entenda a dimensão, vou publicar abaixo tudo o que aconteceu desde o dia 11...
Apenas para seu conhecimento.
Para ajudar sua análise...
Um terremoto 7 graus escala Richter destruiu o Haiti.
Um terremoto 8.8 causou toda a comoção em Concepcion - Chile em fevereiro de 2010.
O Centro de observação considera terremotos acima de 6 graus, eventos de destaque e, para tanto, sempre os destaca em negrito e em vermelho.
Os acima de 4,5 merecem atenção e são destacados em negrito...
Tendo esta informação em mente, perceba o que está acontecendo nesta semana...

MAGUTC DATE-TIME
y/m/d h:m:s
LAT
deg
LON
deg
DEPTH
km
Region
MAP 5.0 2012/04/14 23:49:25 -36.217 -97.123 10.1 WEST CHILE RISE
MAP 4.7 2012/04/14 22:24:44 -18.872 168.507 10.0 VANUATU
MAP 4.5 2012/04/14 22:06:07 2.049 93.544 29.7 OFF THE WEST COAST OF NORTHERN SUMATRA
MAP 6.5 2012/04/14 22:05:26 -18.998 168.771 8.7 VANUATU
MAP 4.4 2012/04/14 21:34:14 0.765 92.655 14.6 OFF THE WEST COAST OF NORTHERN SUMATRA
MAP 4.9 2012/04/14 21:10:38 2.853 94.169 28.7 OFF THE WEST COAST OF NORTHERN SUMATRA
MAP 5.5 2012/04/14 20:53:55 -56.842 -25.304 18.3 SOUTH SANDWICH ISLANDS REGION
MAP 4.1 2012/04/14 20:50:53 34.239 79.851 37.9 KASHMIR-XIZANG BORDER REGION
MAP 4.5 2012/04/14 20:35:21 3.861 92.581 26.9 OFF THE WEST COAST OF NORTHERN SUMATRA
MAP 4.9 2012/04/14 20:31:23 29.282 100.114 20.7 WESTERN SICHUAN, CHINA
MAP 5.9 2012/04/14 19:26:42 -6.874 105.378 49.0 SUNDA STRAIT, INDONESIA
MAP 4.4 2012/04/14 18:11:17 3.443 92.801 27.2 OFF THE WEST COAST OF NORTHERN SUMATRA
MAP 2.8 2012/04/14 17:21:15 41.100 -123.384 25.9 NORTHERN CALIFORNIA
MAP 4.8 2012/04/14 17:10:02 -14.216 166.553 50.3 VANUATU
MAP 4.3 2012/04/14 15:53:44 14.023 120.727 209.0 LUZON, PHILIPPINES
MAP 5.3 2012/04/14 15:21:55 0.275 92.133 14.7 OFF THE WEST COAST OF NORTHERN SUMATRA
MAP 2.7 2012/04/14 15:16:39 63.261 -149.585 105.4 CENTRAL ALASKA
MAP 5.6 2012/04/14 15:13:11 49.358 155.679 63.8 KURIL ISLANDS
MAP 4.5 2012/04/14 15:04:57 37.110 141.220 51.2 NEAR THE EAST COAST OF HONSHU, JAPAN
MAP 2.9 2012/04/14 14:21:48 18.940 -64.376 29.8 VIRGIN ISLANDS REGION
MAP 2.8 2012/04/14 12:30:45 63.555 -147.223 8.2 CENTRAL ALASKA
MAP 5.1 2012/04/14 12:18:27 2.624 90.394 14.4 OFF THE WEST COAST OF NORTHERN SUMATRA
MAP 2.6 2012/04/14 12:13:05 60.954 -150.923 6.3 KENAI PENINSULA, ALASKA
MAP 2.7 2012/04/14 11:34:29 32.997 -116.476 7.2 SOUTHERN CALIFORNIA
MAP 6.2 2012/04/14 10:56:19 -57.588 -65.414 9.9 DRAKE PASSAGE
MAP 4.7 2012/04/14 10:48:51 37.130 141.255 24.3 NEAR THE EAST COAST OF HONSHU, JAPAN
MAP 4.6 2012/04/14 10:08:47 3.927 89.921 9.8 NORTH INDIAN OCEAN
MAP 4.0 2012/04/14 09:34:04 3.366 92.813 10.0 OFF THE WEST COAST OF NORTHERN SUMATRA
MAP 4.8 2012/04/14 09:25:14 36.837 141.093 29.5 NEAR THE EAST COAST OF HONSHU, JAPAN
MAP 3.3 2012/04/14 09:00:14 19.916 -66.159 38.2 PUERTO RICO REGION
MAP 4.4 2012/04/14 08:46:10 37.039 141.286 52.4 NEAR THE EAST COAST OF HONSHU, JAPAN
MAP 4.3 2012/04/14 08:15:57 3.478 92.768 10.9 OFF THE WEST COAST OF NORTHERN SUMATRA
MAP 3.0 2012/04/14 07:35:59 35.056 -96.017 5.0 OKLAHOMA
MAP 2.6 2012/04/14 07:34:56 36.892 -121.629 6.7 CENTRAL CALIFORNIA
MAP 4.3 2012/04/14 07:33:12 1.400 91.025 10.0 NORTH INDIAN OCEAN
MAP 3.4 2012/04/14 06:41:37 19.769 -66.114 39.6 PUERTO RICO REGION
MAP 4.4 2012/04/14 06:23:21 -20.536 -178.689 553.6 FIJI REGION
MAP 4.3 2012/04/14 05:27:39 17.297 73.561 11.1 MAHARASHTRA, INDIA
MAP 2.7 2012/04/14 05:25:34 18.216 -65.689 27.8 PUERTO RICO
MAP 4.3 2012/04/14 05:23:28 2.687 93.704 28.9 OFF THE WEST COAST OF NORTHERN SUMATRA
MAP 3.4 2012/04/14 05:15:12 19.269 -64.868 23.7 VIRGIN ISLANDS REGION
MAP 4.3 2012/04/14 04:13:25 -7.341 128.716 160.4 KEPULAUAN BARAT DAYA, INDONESIA
MAP 2.5 2012/04/14 04:06:56 62.234 -150.652 33.0 CENTRAL ALASKA
MAP 4.2 2012/04/14 04:03:48 2.160 90.301 14.3 OFF THE WEST COAST OF NORTHERN SUMATRA
MAP 2.9 2012/04/14 04:03:01 58.590 -152.976 72.5 KODIAK ISLAND REGION, ALASKA
MAP 2.8 2012/04/14 03:10:43 31.751 -116.117 12.7 BAJA CALIFORNIA, MEXICO
MAP 4.2 2012/04/14 02:49:16 2.527 90.057 15.0 OFF THE WEST COAST OF NORTHERN SUMATRA
MAP 4.5 2012/04/14 02:03:58 0.509 92.276 13.1 OFF THE WEST COAST OF NORTHERN SUMATRA
MAP 2.8 2012/04/14 00:52:24 61.673 -151.450 83.4 SOUTHERN ALASKA
MAP 4.5 2012/04/14 00:46:24 1.856 98.954 24.9 NORTHERN SUMATRA, INDONESIA
MAP 4.4 2012/04/14 00:40:37 -0.597 122.888 35.0 SULAWESI, INDONESIA
MAP 4.3 2012/04/14 00:29:21 -0.519 92.092 9.9 SOUTHWEST OF SUMATRA, INDONESIA




MAGUTC DATE-TIME
y/m/d h:m:s
LAT
deg
LON
deg
DEPTH
km
Region
MAP 3.5 2012/04/13 22:18:54 36.891 -121.627 6.6 CENTRAL CALIFORNIA
MAP 4.5 2012/04/13 20:46:13 16.483 -98.053 9.8 OAXACA, MEXICO
MAP 4.5 2012/04/13 20:28:29 -21.357 -66.469 213.0 POTOSI, BOLIVIA
MAP 4.6 2012/04/13 20:00:33 3.775 92.662 27.9 OFF THE WEST COAST OF NORTHERN SUMATRA
MAP 4.1 2012/04/13 19:54:32 30.134 138.486 429.2 IZU ISLANDS, JAPAN REGION
MAP 4.7 2012/04/13 19:52:07 1.601 91.251 16.8 NORTH INDIAN OCEAN
MAP 4.7 2012/04/13 19:35:09 -4.685 102.646 64.0 SOUTHERN SUMATRA, INDONESIA
MAP 3.4 2012/04/13 19:16:42 57.888 -156.634 139.8 ALASKA PENINSULA
MAP 3.0 2012/04/13 18:47:50 56.317 -156.593 6.6 ALASKA PENINSULA
MAP 4.0 2012/04/13 18:12:11 1.903 93.965 10.3 OFF THE WEST COAST OF NORTHERN SUMATRA
MAP 2.7 2012/04/13 17:45:05 63.948 -148.937 1.5 CENTRAL ALASKA
MAP 4.4 2012/04/13 17:04:53 49.641 155.687 67.0 KURIL ISLANDS
MAP 4.8 2012/04/13 16:42:34 -20.464 -177.526 488.6 FIJI REGION
MAP 4.5 2012/04/13 15:54:46 38.027 142.768 35.8 NEAR THE EAST COAST OF HONSHU, JAPAN
MAP 4.5 2012/04/13 15:52:46 -19.119 169.577 245.2 VANUATU
MAP 4.4 2012/04/13 15:33:32 0.990 91.843 14.8 NORTH INDIAN OCEAN
MAP 4.6 2012/04/13 13:49:56 14.854 -92.131 102.5 GUATEMALA
MAP 5.3 2012/04/13 13:06:28 16.266 -98.039 14.3 OAXACA, MEXICO
MAP 4.8 2012/04/13 12:48:13 3.418 89.939 15.4 NORTH INDIAN OCEAN
MAP 5.0 2012/04/13 12:12:07 36.984 141.235 35.2 NEAR THE EAST COAST OF HONSHU, JAPAN
MAP 4.3 2012/04/13 12:03:51 2.246 92.490 30.8 OFF THE WEST COAST OF NORTHERN SUMATRA
MAP 4.7 2012/04/13 11:43:49 1.127 91.891 11.2 NORTH INDIAN OCEAN
MAP 3.3 2012/04/13 10:16:51 19.808 -66.235 12.8 PUERTO RICO REGION
MAP 4.3 2012/04/13 10:11:53 25.281 95.008 73.4 MYANMAR
MAP 5.4 2012/04/13 10:10:05 16.274 -98.112 10.1 OAXACA, MEXICO
MAP 5.7 2012/04/13 10:10:01 36.995 141.336 8.7 NEAR THE EAST COAST OF HONSHU, JAPAN
MAP 2.7 2012/04/13 07:54:25 18.490 -64.909 31.1 VIRGIN ISLANDS REGION
MAP 2.9 2012/04/13 07:47:22 51.608 -177.450 37.4 ANDREANOF ISLANDS, ALEUTIAN IS., ALASKA
MAP 3.2 2012/04/13 07:07:04 18.177 -64.609 137.6 VIRGIN ISLANDS REGION
MAP 4.5 2012/04/13 06:48:06 39.866 75.354 63.4 SOUTHERN XINJIANG, CHINA
MAP 4.7 2012/04/13 06:21:36 38.233 13.329 26.8 SICILY, ITALY
MAP 4.7 2012/04/13 06:13:16 -35.210 -72.020 40.3 MAULE, CHILE
MAP 4.9 2012/04/13 05:31:47 2.758 89.592 17.4 NORTH INDIAN OCEAN
MAP 2.9 2012/04/13 05:31:23 18.957 -67.695 5.3 PUERTO RICO REGION
MAP 4.6 2012/04/13 05:08:13 1.183 91.578 15.0 NORTH INDIAN OCEAN
MAP 4.8 2012/04/13 04:49:50 1.607 91.090 15.1 NORTH INDIAN OCEAN
MAP 4.2 2012/04/13 04:22:10 38.406 43.449 10.1 EASTERN TURKEY
MAP 2.6 2012/04/13 04:18:02 33.454 -118.235 0.1 SAN PEDRO CHANNEL, CALIFORNIA
MAP 5.0 2012/04/13 04:15:11 -18.267 168.096 46.5 VANUATU
MAP 4.5 2012/04/13 04:02:39 -6.431 130.092 154.8 BANDA SEA
MAP 2.6 2012/04/13 03:52:07 61.723 -151.988 40.0 SOUTHERN ALASKA
MAP 4.5 2012/04/13 03:38:39 2.616 90.073 15.5 OFF THE WEST COAST OF NORTHERN SUMATRA
MAP 4.4 2012/04/13 03:17:20 1.082 91.772 14.1 NORTH INDIAN OCEAN
MAP 3.2 2012/04/13 02:20:35 57.644 -153.829 68.2 KODIAK ISLAND REGION, ALASKA
MAP 4.2 2012/04/13 00:04:52 38.969 44.267 10.0 TURKEY-IRAN BORDER REGION




MAGUTC DATE-TIME
y/m/d h:m:s
LAT
deg
LON
deg
DEPTH
km
Region
MAP 4.8 2012/04/12 23:15:48 -44.509 94.263 10.0 SOUTHEAST INDIAN RIDGE
MAP 2.8 2012/04/12 22:46:27 33.038 -116.386 9.4 SOUTHERN CALIFORNIA
MAP 2.7 2012/04/12 22:42:10 60.184 -150.812 76.2 KENAI PENINSULA, ALASKA
MAP 4.4 2012/04/12 22:37:17 3.720 92.666 27.1 OFF THE WEST COAST OF NORTHERN SUMATRA
MAP 4.8 2012/04/12 21:42:23 1.100 92.825 28.7 OFF THE WEST COAST OF NORTHERN SUMATRA
MAP 2.7 2012/04/12 20:49:15 61.707 -147.992 26.4 SOUTHERN ALASKA
MAP 5.1 2012/04/12 20:21:53 3.780 92.784 9.2 OFF THE WEST COAST OF NORTHERN SUMATRA
MAP 3.5 2012/04/12 18:53:01 33.464 -116.466 7.7 SOUTHERN CALIFORNIA
MAP 3.6 2012/04/12 18:31:34 19.514 -66.192 87.0 PUERTO RICO REGION
MAP 2.7 2012/04/12 16:59:21 43.426 -127.103 5.0 OFF THE COAST OF OREGON
MAP 4.2 2012/04/12 16:58:35 16.161 -98.113 1.0 OFFSHORE OAXACA, MEXICO
MAP 3.6 2012/04/12 16:44:45 18.873 -64.154 39.0 VIRGIN ISLANDS REGION
MAP 4.0 2012/04/12 16:41:07 62.790 -148.985 67.6 CENTRAL ALASKA
MAP 2.7 2012/04/12 16:25:13 43.594 -126.891 5.0 OFF THE COAST OF OREGON
MAP 4.4 2012/04/12 15:51:18 36.581 141.831 32.0 NEAR THE EAST COAST OF HONSHU, JAPAN
MAP 4.7 2012/04/12 15:26:53 32.173 141.840 33.1 IZU ISLANDS, JAPAN REGION
MAP 4.8 2012/04/12 15:07:33 3.453 92.718 11.0 OFF THE WEST COAST OF NORTHERN SUMATRA
MAP 4.8 2012/04/12 15:01:17 -7.715 106.951 42.8 JAVA, INDONESIA
MAP 5.6 2012/04/12 14:50:53 37.539 141.568 23.2 NEAR THE EAST COAST OF HONSHU, JAPAN
MAP 5.0 2012/04/12 14:46:28 3.287 93.729 27.8 OFF THE WEST COAST OF NORTHERN SUMATRA
MAP 4.7 2012/04/12 14:31:38 4.187 92.551 29.7 OFF THE WEST COAST OF NORTHERN SUMATRA
MAP 5.3 2012/04/12 13:09:49 2.409 93.421 30.4 OFF THE WEST COAST OF NORTHERN SUMATRA
MAP 4.8 2012/04/12 12:19:41 2.092 93.599 29.5 OFF THE WEST COAST OF NORTHERN SUMATRA
MAP 3.1 2012/04/12 12:10:05 35.501 -96.773 4.9 OKLAHOMA
MAP 2.6 2012/04/12 11:53:07 36.660 -121.282 6.1 CENTRAL CALIFORNIA
MAP 4.9 2012/04/12 11:38:19 -26.365 -13.661 10.0 SOUTHERN MID-ATLANTIC RIDGE
MAP 3.1 2012/04/12 11:34:00 18.896 -67.411 8.6 PUERTO RICO REGION
MAP 5.3 2012/04/12 11:19:59 36.874 141.060 14.3 NEAR THE EAST COAST OF HONSHU, JAPAN
MAP 4.9 2012/04/12 11:02:00 -5.987 103.379 28.1 SOUTHERN SUMATRA, INDONESIA
MAP 4.7 2012/04/12 10:59:52 1.227 92.132 10.1 OFF THE WEST COAST OF NORTHERN SUMATRA
MAP 4.9 2012/04/12 10:26:57 28.794 -113.024 9.9 GULF OF CALIFORNIA
MAP 4.7 2012/04/12 10:19:00 2.732 92.522 30.2 OFF THE WEST COAST OF NORTHERN SUMATRA
MAP 2.5 2012/04/12 09:30:46 18.559 -66.141 103.8 PUERTO RICO REGION
MAP 4.7 2012/04/12 09:15:19 1.111 92.030 27.5 OFF THE WEST COAST OF NORTHERN SUMATRA
MAP 4.1 2012/04/12 08:56:29 37.478 72.008 163.4 TAJIKISTAN
MAP 4.4 2012/04/12 08:54:48 28.876 -113.188 10.1 GULF OF CALIFORNIA
MAP 4.2 2012/04/12 07:57:33 28.511 -112.954 10.0 GULF OF CALIFORNIA
MAP 5.1 2012/04/12 07:43:49 2.973 92.742 30.4 OFF THE WEST COAST OF NORTHERN SUMATRA
MAP 2.5 2012/04/12 07:43:04 63.555 -150.959 7.2 CENTRAL ALASKA
MAP 5.0 2012/04/12 07:34:57 3.394 89.817 15.8 NORTH INDIAN OCEAN
MAP 6.9 2012/04/12 07:15:49 28.790 -113.142 10.3 GULF OF CALIFORNIA
MAP 4.0 2012/04/12 07:14:32 59.770 -152.226 64.3 SOUTHERN ALASKA
MAP 6.2 2012/04/12 07:06:01 28.841 -113.072 10.1 GULF OF CALIFORNIA
MAP 5.0 2012/04/12 07:01:47 1.955 93.926 26.9 OFF THE WEST COAST OF NORTHERN SUMATRA
MAP 4.7 2012/04/12 06:48:38 28.799 -113.051 9.8 GULF OF CALIFORNIA
MAP 2.7 2012/04/12 06:47:49 19.221 -66.897 11.7 PUERTO RICO REGION
MAP 4.5 2012/04/12 06:47:37 2.895 89.463 14.7 NORTH INDIAN OCEAN
MAP 4.5 2012/04/12 05:48:25 1.801 89.548 15.1 NORTH INDIAN OCEAN
MAP 4.6 2012/04/12 05:34:58 -7.582 129.521 78.7 KEPULAUAN BABAR, INDONESIA
MAP 3.6 2012/04/12 05:34:53 18.172 -67.359 17.0 MONA PASSAGE, PUERTO RICO
MAP 2.5 2012/04/12 05:09:30 19.379 -155.239 3.6 ISLAND OF HAWAII, HAWAII
MAP 2.5 2012/04/12 04:57:34 37.805 -112.088 3.2 UTAH
MAP 3.2 2012/04/12 04:48:44 61.087 -151.004 78.5 SOUTHERN ALASKA
MAP 2.5 2012/04/12 04:16:04 37.809 -112.092 8.5 UTAH
MAP 4.2 2012/04/12 03:29:22 37.811 -112.089 10.6 UTAH
MAP 2.5 2012/04/12 03:00:28 57.227 -153.963 47.0 KODIAK ISLAND REGION, ALASKA
MAP 5.0 2012/04/12 02:54:45 1.223 91.774 14.8 NORTH INDIAN OCEAN
MAP 4.8 2012/04/12 02:42:43 3.529 92.693 27.7 OFF THE WEST COAST OF NORTHERN SUMATRA
MAP 4.5 2012/04/12 02:29:41 41.998 -65.994 15.8 NORTH ATLANTIC OCEAN
MAP 3.4 2012/04/12 02:03:47 66.695 -143.897 0.2 NORTHERN ALASKA
MAP 2.6 2012/04/12 01:34:01 59.929 -153.250 175.6 SOUTHERN ALASKA
MAP 4.7 2012/04/12 00:50:36 2.558 92.302 10.0 OFF THE WEST COAST OF NORTHERN SUMATRA
MAP 4.7 2012/04/12 00:30:03 4.445 92.859 29.2 OFF THE WEST COAST OF NORTHERN SUMATRA
MAP 2.7 2012/04/12 00:25:31 37.767 -112.324 2.9 UTAH
MAP 2.9 2012/04/12 00:07:05 38.799 -122.809 3.9 NORTHERN CALIFORNIA




MAGUTC DATE-TIME
y/m/d h:m:s
LAT
deg
LON
deg
DEPTH
km
Region
MAP 5.5 2012/04/11 23:56:34 1.798 89.670 13.9 NORTH INDIAN OCEAN
MAP 4.6 2012/04/11 23:28:44 -20.363 -177.712 535.7 FIJI REGION
MAP 4.6 2012/04/11 23:18:50 3.089 92.839 10.2 OFF THE WEST COAST OF NORTHERN SUMATRA
MAP 6.5 2012/04/11 22:55:11 18.272 -102.732 20.0 MICHOACAN, MEXICO
MAP 5.4 2012/04/11 22:51:59 2.897 89.597 14.7 NORTH INDIAN OCEAN
MAP 5.9 2012/04/11 22:41:47 43.593 -127.557 10.2 OFF THE COAST OF OREGON
MAP 4.9 2012/04/11 22:35:34 2.488 90.185 14.8 OFF THE WEST COAST OF NORTHERN SUMATRA
MAP 5.0 2012/04/11 22:15:26 0.514 92.443 13.8 OFF THE WEST COAST OF NORTHERN SUMATRA
MAP 4.2 2012/04/11 22:02:50 51.556 -176.708 38.7 ANDREANOF ISLANDS, ALEUTIAN IS., ALASKA
MAP 3.0 2012/04/11 21:52:22 56.125 -161.287 196.8 ALASKA PENINSULA
MAP 5.0 2012/04/11 21:36:09 1.787 90.927 15.0 NORTH INDIAN OCEAN
MAP 3.2 2012/04/11 21:23:40 51.317 -178.352 46.6 ANDREANOF ISLANDS, ALEUTIAN IS., ALASKA
MAP 4.7 2012/04/11 21:02:50 0.717 92.407 15.2 OFF THE WEST COAST OF NORTHERN SUMATRA
MAP 2.9 2012/04/11 20:50:59 18.088 -67.480 11.6 MONA PASSAGE, PUERTO RICO
MAP 3.6 2012/04/11 20:03:14 19.075 -68.615 165.3 DOMINICAN REPUBLIC REGION
MAP 5.5 2012/04/11 19:04:20 1.202 92.090 10.3 OFF THE WEST COAST OF NORTHERN SUMATRA
MAP 5.4 2012/04/11 18:54:46 2.496 92.712 14.3 OFF THE WEST COAST OF NORTHERN SUMATRA
MAP 3.3 2012/04/11 17:59:44 52.517 -173.577 230.1 ANDREANOF ISLANDS, ALEUTIAN IS., ALASKA
MAP 2.8 2012/04/11 17:41:50 32.192 -115.278 10.0 BAJA CALIFORNIA, MEXICO
MAP 2.5 2012/04/11 16:32:14 18.731 -68.225 104.0 DOMINICAN REPUBLIC REGION
MAP 5.1 2012/04/11 16:04:24 3.426 92.860 10.8 OFF THE WEST COAST OF NORTHERN SUMATRA
MAP 5.1 2012/04/11 15:46:53 2.987 92.249 21.6 OFF THE WEST COAST OF NORTHERN SUMATRA
MAP 4.8 2012/04/11 15:37:17 2.540 91.897 10.0 OFF THE WEST COAST OF NORTHERN SUMATRA
MAP 5.1 2012/04/11 15:09:23 2.559 90.291 14.7 OFF THE WEST COAST OF NORTHERN SUMATRA
MAP 5.0 2012/04/11 15:06:40 1.347 92.383 10.0 OFF THE WEST COAST OF NORTHERN SUMATRA
MAP 2.6 2012/04/11 14:57:42 52.870 -169.523 10.3 FOX ISLANDS, ALEUTIAN ISLANDS, ALASKA
MAP 5.3 2012/04/11 14:54:29 1.204 91.815 14.7 NORTH INDIAN OCEAN
MAP 4.7 2012/04/11 14:49:04 1.913 94.165 14.8 OFF THE WEST COAST OF NORTHERN SUMATRA
MAP 5.3 2012/04/11 14:34:19 1.474 90.842 15.0 NORTH INDIAN OCEAN
MAP 4.8 2012/04/11 14:26:26 2.245 92.383 8.4 OFF THE WEST COAST OF NORTHERN SUMATRA
MAP 5.1 2012/04/11 14:20:57 2.883 89.979 10.0 NORTH INDIAN OCEAN
MAP 5.0 2012/04/11 14:18:45 2.518 92.285 10.7 OFF THE WEST COAST OF NORTHERN SUMATRA
MAP 5.2 2012/04/11 14:08:41 1.123 92.133 9.9 OFF THE WEST COAST OF NORTHERN SUMATRA
MAP 4.8 2012/04/11 14:05:12 1.673 89.595 10.0 NORTH INDIAN OCEAN
MAP 5.5 2012/04/11 13:58:06 1.485 90.836 15.6 NORTH INDIAN OCEAN
MAP 5.3 2012/04/11 13:42:40 2.159 93.597 11.0 OFF THE WEST COAST OF NORTHERN SUMATRA
MAP 4.6 2012/04/11 13:39:56 0.600 91.889 10.0 NORTH INDIAN OCEAN
MAP 4.6 2012/04/11 13:32:35 1.905 89.578 10.0 NORTH INDIAN OCEAN
MAP 5.0 2012/04/11 13:19:38 2.345 90.302 20.4 OFF THE WEST COAST OF NORTHERN SUMATRA
MAP 5.1 2012/04/11 13:15:28 4.614 90.764 5.3 OFF THE WEST COAST OF NORTHERN SUMATRA
MAP 4.8 2012/04/11 13:12:05 -18.479 -175.498 245.2 TONGA
MAP 4.5 2012/04/11 13:10:07 0.890 92.382 10.0 OFF THE WEST COAST OF NORTHERN SUMATRA
MAP 5.1 2012/04/11 12:37:48 2.528 92.602 10.0 OFF THE WEST COAST OF NORTHERN SUMATRA
MAP 5.1 2012/04/11 12:21:58 3.136 92.775 9.9 OFF THE WEST COAST OF NORTHERN SUMATRA
MAP 5.1 2012/04/11 12:10:53 1.385 92.639 10.4 OFF THE WEST COAST OF NORTHERN SUMATRA
MAP 5.7 2012/04/11 11:53:37 2.929 89.534 14.9 NORTH INDIAN OCEAN
MAP 5.3 2012/04/11 11:52:29 0.989 91.942 14.9 NORTH INDIAN OCEAN
MAP 5.4 2012/04/11 11:34:02 0.743 92.865 15.5 OFF THE WEST COAST OF NORTHERN SUMATRA
MAP 5.4 2012/04/11 11:29:00 -56.847 -27.966 259.0 SOUTH SANDWICH ISLANDS REGION
MAP 8.2 2012/04/11 10:43:09 0.773 92.452 16.4 OFF THE WEST COAST OF NORTHERN SUMATRA
MAP 2.6 2012/04/11 10:42:48 33.491 -116.425 10.6 SOUTHERN CALIFORNIA
MAP 5.4 2012/04/11 10:36:55 1.072 91.943 15.5 NORTH INDIAN OCEAN
MAP 5.4 2012/04/11 10:21:16 2.833 92.476 14.8 OFF THE WEST COAST OF NORTHERN SUMATRA
MAP 5.1 2012/04/11 10:08:30 2.646 90.084 16.1 OFF THE WEST COAST OF NORTHERN SUMATRA
MAP 5.3 2012/04/11 10:01:20 2.499 90.365 20.0 OFF THE WEST COAST OF NORTHERN SUMATRA
MAP 5.3 2012/04/11 09:51:42 2.510 90.316 20.0 OFF THE WEST COAST OF NORTHERN SUMATRA
MAP 2.9 2012/04/11 09:40:58 60.104 -152.831 101.5 SOUTHERN ALASKA
MAP 2.8 2012/04/11 09:33:21 53.260 -167.706 69.6 FOX ISLANDS, ALEUTIAN ISLANDS, ALASKA
MAP 6.0 2012/04/11 09:27:57 1.281 91.731 9.8 NORTH INDIAN OCEAN
MAP 3.9 2012/04/11 09:21:57 64.922 -148.946 19.3 CENTRAL ALASKA
MAP 5.5 2012/04/11 09:00:13 51.518 -176.312 56.5 ANDREANOF ISLANDS, ALEUTIAN IS., ALASKA
MAP 8.6 2012/04/11 08:38:37 2.311 93.063 22.9 OFF THE WEST COAST OF NORTHERN SUMATRA
MAP 5.3 2012/04/11 07:41:46 -6.227 130.158 132.2 BANDA SEA
MAP 4.4 2012/04/11 06:54:39 -22.748 -66.387 226.3 JUJUY, ARGENTINA
MAP 2.7 2012/04/11 06:41:28 63.489 -151.346 10.3 CENTRAL ALASKA
MAP 5.1 2012/04/11 05:44:42 -16.900 -14.406 10.5 SOUTHERN MID-ATLANTIC RIDGE
MAP 2.5 2012/04/11 05:02:38 50.924 -174.184 20.0 ANDREANOF ISLANDS, ALEUTIAN IS., ALASKA
MAP 5.2 2012/04/11 04:53:26 -16.822 -14.440 9.7 SOUTHERN MID-ATLANTIC RIDGE
MAP 3.1 2012/04/11 04:50:37 51.285 179.099 50.0 RAT ISLANDS, ALEUTIAN ISLANDS, ALASKA
MAP 2.6 2012/04/11 03:18:48 33.776 -116.105 6.2 SOUTHERN CALIFORNIA
MAP 4.5 2012/04/11 01:21:18 42.200 87.908 31.7 NORTHERN XINJIANG, CHINA
MAP 4.5 2012/04/11 00:34:13 -23.896 -114.819 10.0 EASTER ISLAND REGION


Eu ampliei a fonte dos destaques em vermelho que são os que mais interessam para minha análise.
O "resumo da ópera" até agora, é que nesta semana tivemos dois terremotos classe 8 na Indonésia com um classe 6 no Oceano Índico, três terremotos classe 6, na costa do Pacífico na América do Norte, e mais 2 classe 6 hoje sendo um em Vanuatu, e outro no sul da América do Sul.
O que isso significa?
Poderia ser algo normal, mas não é.
Para fundamentar o que digo, vou dar o link de um vídeo que achei hoje no YouTube, e que me mostra o quão anormais as coisas estão.
Preciso apenas explicar algo antes...
O site do governo americano tem diversos sismógrafos ao redor do mundo que são apresentados em tempo real.
Em dia de atividade normal, eles aparecem assim, como você pode ver agora, se clicar aqui.
Com muitos quase sem atividade.
Quando acontece algum terremoto, os mais próximos do epicentro ou conectados de alguma forma ao evento, aparecem com gráficos mais intensos, enquanto outros permanecem com baixa atividade registrada.
Entretanto, no dia 11, praticamente TODOS eles acusaram uma ativade global impressionante.
E simultânea.
Embora a narração do vídeo seja em inglês, bastará você observar os mesmos quadros do link acima, para perceber que todos eles foram globalmente alterados.
Isso é algo que eu nunca vi em três anos de observação.
Assista por favor, o vídeo, que é bem curto, de pouco mais de 3 minutos, clicando aqui.
Veja que foi postado no próprio dia 11.
O que quero dizer com este post?
Que as coisas, aparentemente, não estão "normais".
E que desejo, sim, causar um desconforto no seu interior.
Por que?
Por que você, que se dá ao trabalho de ler BLOG com conteúdo como o meu, é claramente uma pessoa que está inclinado a pensar que há algo de estranho acontecendo, ou mesmo já tem certeza.
Como eu tenho.
Meu desejo ao publicar um conteúdo claramente sobre os últimos dias, é que o meu leitor se decida, definitivamente, a  aprofundar sua busca sobre as Palavras de Jesus.
E, também, claro, a observar melhor o que está acontecendo no mundo hoje.
Jesus disse claramente que terremotos em todos os lugares é uma marca dos últimos dias.
Será que pode piorar ainda sem que Ele venha?
Não sei.
Talvez sim... talvez não...
O que sei, é que a atividade está absurdamente maior e mais intensa, se eu comparar com o que via no início, quando comecei a observar o site americano.
E que de forma sobrenatural, os danos e mortes, proporcionalmente, ainda são pequenos.
Pela bondade e misericórdia de Deus.
Mas confesso que quero, sim, tirar o seu sono, até que você decida conhecer mais o que a Bíblia fala sobre os últimos dias.
A formar sua própria opinião, acerca do que Deus nos registrou para estes dias.
Quero que você perceba pela ilustração do post, que estamos pisando em um lugar que, ao contrário do que você sempre pensou, não é seguro, nem imutável, mas pode se tornar absolutamente frágil e instável a qualquer momento.
Quero do fundo do meu coração que você busque informações além daquelas que aparecem na mídia convencional.
Que são manipuladas...
Tenho quase certeza, que você não viu quase nada do que mostro aqui em lugar nenhum da mídia convencional, embora a fonte do governo americano seja absolutamente confiável e segura.
E sei que você vai encontrar isso e muito mais em muitos sites e BLOGS com conteúdo muito melhor do que o meu, tanto em inglês, como alguns em português.
E VEJA QUE EU NÃO VOU NEM FALAR AQUI, HOJE,  DA ATIVIDADE DOS VULCÕES, QUE NESTE ANO, ESTÁ ABSURDAMENTE MAIOR!!!
Se você acha que sou um lunático ou desequilibrado, adepto a teorias da conspiração, não passe mais por aqui, pois meu conteúdo continuará sendo este até o último dia em que puder escrever livremente.
Ou até quando eu estiver por aqui...
Mas se no fundo você sabe que precisa pensar sobre o que escrevo...
Estarei esperando sua volta aqui, ao longo dos próximos dias.
Meu querido, minha querida...
Você precisa saber em que crê, como interpreta o que estamos vivendo, e para onde você vai...
Por sua própria dedicação pessoal.
Leia a Bíblia!

Veja os Sinais!

Que Deus nos abençoe,

SHALOM!

Haroldo Maranhão

Nenhum comentário:

Postar um comentário